Time;durP1;ratioP1;P1;durP2;ratioP2;P2;SDS_P1;SDS_P2;PMS_P1;PMS_P2;Temp;Humidity;BMP_temperature;BMP_pressure;BME280_temperature;BME280_humidity;BME280_pressure;Samples;Min_cycle;Max_cycle;Signal;HPM_P1;HPM_P2
2022/09/05 00:00:00;;;;;;;0.90;0.90;;;;;;;17.64;93.07;95940.75;4325597;32;20203;-58
2022/09/05 00:02:46;;;;;;;0.97;0.97;;;;;;;17.60;93.41;95932.53;4325072;32;20190;-59
2022/09/05 00:05:19;;;;;;;1.00;1.00;;;;;;;17.53;93.40;95927.66;4317123;32;20208;-59
2022/09/05 00:08:03;;;;;;;3.87;1.17;;;;;;;17.21;92.31;95930.16;4306915;32;20296;-58
2022/09/05 00:10:47;;;;;;;1.00;1.00;;;;;;;17.21;93.33;95922.91;4329401;32;20228;-59
2022/09/05 00:13:28;;;;;;;0.83;0.83;;;;;;;17.35;93.62;95922.69;4322946;32;20208;-59
2022/09/05 00:16:24;;;;;;;0.90;0.83;;;;;;;17.49;93.33;95921.38;4329256;32;20242;-58
2022/09/05 00:19:22;;;;;;;0.87;0.87;;;;;;;17.43;93.40;95921.91;4313009;33;20201;-58
2022/09/05 00:22:17;;;;;;;1.00;1.00;;;;;;;17.53;93.74;95921.53;4324242;32;20190;-58
2022/09/05 00:25:06;;;;;;;1.03;1.03;;;;;;;17.36;93.53;95917.00;4287486;33;20198;-59
2022/09/05 00:27:57;;;;;;;3.53;0.90;;;;;;;17.49;93.49;95921.38;4298914;33;20298;-58
2022/09/05 00:30:33;;;;;;;1.30;1.20;;;;;;;17.34;93.25;95921.91;4288063;33;20228;-58
2022/09/05 00:33:39;;;;;;;0.90;0.90;;;;;;;17.41;92.96;95922.22;4303641;33;20197;-58
2022/09/05 00:36:40;;;;;;;0.70;0.70;;;;;;;17.42;94.25;95925.69;4262334;33;20201;-58
2022/09/05 00:39:13;;;;;;;1.23;1.20;;;;;;;17.49;92.86;95920.59;4305721;33;20190;-58
2022/09/05 00:41:41;;;;;;;0.50;0.50;;;;;;;17.48;93.19;95924.38;4293728;32;20244;-58
2022/09/05 00:44:12;;;;;;;0.87;0.87;;;;;;;17.34;92.86;95929.16;4324340;32;20236;-58
2022/09/05 00:46:46;;;;;;;0.53;0.53;;;;;;;17.40;93.15;95922.53;4323107;33;20194;-59
2022/09/05 00:49:46;;;;;;;0.70;0.70;;;;;;;17.03;91.92;95921.38;4326163;33;20261;-58
2022/09/05 00:52:31;;;;;;;1.97;1.27;;;;;;;17.04;93.11;95914.91;4314690;32;20247;-59
2022/09/05 00:55:19;;;;;;;0.63;0.63;;;;;;;17.07;93.90;95920.41;4324488;32;20193;-58
2022/09/05 00:58:26;;;;;;;0.40;0.40;;;;;;;16.92;93.04;95912.88;4333510;32;21477;-58
2022/09/05 01:00:57;;;;;;;0.37;0.37;;;;;;;16.91;93.22;95915.87;4290596;32;20240;-58
2022/09/05 01:03:43;;;;;;;0.60;0.60;;;;;;;16.99;93.70;95913.19;4321457;32;20211;-58
2022/09/05 01:06:46;;;;;;;0.63;0.63;;;;;;;17.12;93.33;95912.19;4315751;32;20198;-59
2022/09/05 01:09:32;;;;;;;0.70;0.70;;;;;;;16.99;91.39;95907.84;4306112;32;20240;-58
2022/09/05 01:12:26;;;;;;;0.80;0.80;;;;;;;17.16;93.56;95918.50;4346335;32;20208;-59
2022/09/05 01:15:21;;;;;;;0.63;0.63;;;;;;;17.15;93.22;95914.25;4331022;32;20194;-58
2022/09/05 01:17:55;;;;;;;1.27;0.50;;;;;;;17.03;92.20;95911.44;4311835;32;20205;-58
2022/09/05 01:20:51;;;;;;;1.13;0.77;;;;;;;17.07;93.18;95917.72;4334564;32;20214;-58
2022/09/05 01:23:36;;;;;;;0.70;0.70;;;;;;;17.07;93.31;95916.94;4331195;32;20209;-58
2022/09/05 01:26:10;;;;;;;1.03;0.80;;;;;;;17.14;94.24;95919.94;4332042;32;20307;-58
2022/09/05 01:28:52;;;;;;;0.33;0.33;;;;;;;17.29;93.26;95918.59;4327980;32;20228;-58
2022/09/05 01:31:37;;;;;;;0.60;0.60;;;;;;;17.16;92.54;95917.72;4313637;32;20212;-58
2022/09/05 01:34:36;;;;;;;1.00;0.83;;;;;;;17.16;93.64;95918.50;4337628;32;20239;-58
2022/09/05 01:37:13;;;;;;;0.67;0.67;;;;;;;17.30;93.99;95920.19;4335084;32;20288;-58
2022/09/05 01:39:49;;;;;;;1.10;0.93;;;;;;;17.22;93.23;95923.69;4323286;32;20251;-58
2022/09/05 01:42:45;;;;;;;1.13;0.60;;;;;;;17.20;93.60;95913.28;4335638;32;21384;-58
2022/09/05 01:45:37;;;;;;;0.50;0.50;;;;;;;17.05;91.85;95914.56;4333017;32;20241;-58
2022/09/05 01:48:19;;;;;;;0.77;0.70;;;;;;;17.01;92.50;95919.03;4326719;32;20220;-58
2022/09/05 01:51:10;;;;;;;0.93;0.63;;;;;;;16.95;92.69;95912.25;4314650;32;20281;-58
2022/09/05 01:53:54;;;;;;;0.67;0.67;;;;;;;17.00;93.94;95914.78;4338778;32;20185;-58
2022/09/05 01:56:39;;;;;;;0.47;0.47;;;;;;;17.23;93.59;95909.19;4337235;32;20212;-58
2022/09/05 01:59:22;;;;;;;0.57;0.57;;;;;;;17.20;93.00;95912.50;4332420;32;20201;-58
2022/09/05 02:02:07;;;;;;;0.70;0.70;;;;;;;17.12;92.10;95914.88;4330675;32;20216;-58
2022/09/05 02:04:59;;;;;;;0.67;0.67;;;;;;;17.21;93.14;95916.75;4310841;32;20201;-58
2022/09/05 02:08:00;;;;;;;1.70;0.63;;;;;;;17.11;93.60;95910.63;4332535;32;20209;-65
2022/09/05 02:10:52;;;;;;;0.93;0.93;;;;;;;17.26;93.46;95914.66;4286853;32;20206;-59
2022/09/05 02:13:32;;;;;;;0.67;0.67;;;;;;;17.30;93.15;95915.59;4300820;33;20209;-58
2022/09/05 02:16:16;;;;;;;0.37;0.37;;;;;;;17.28;92.46;95920.50;4317122;32;20232;-58
2022/09/05 02:19:10;;;;;;;0.47;0.47;;;;;;;17.28;92.85;95919.72;4295984;32;20205;-58
2022/09/05 02:22:15;;;;;;;0.57;0.57;;;;;;;17.20;92.14;95923.22;4311166;32;20190;-58
2022/09/05 02:24:46;;;;;;;0.53;0.53;;;;;;;17.24;92.87;95914.22;4323782;32;20289;-58
2022/09/05 02:27:46;;;;;;;1.07;1.07;;;;;;;17.27;93.13;95924.28;4334442;32;20295;-58
2022/09/05 02:30:20;;;;;;;0.60;0.60;;;;;;;17.22;92.80;95921.03;4282706;33;20217;-58
2022/09/05 02:33:10;;;;;;;0.50;0.50;;;;;;;17.10;93.11;95933.19;4321346;32;20284;-58
2022/09/05 02:36:12;;;;;;;0.63;0.63;;;;;;;17.29;92.68;95930.13;4296290;32;20239;-58
2022/09/05 02:38:45;;;;;;;0.60;0.60;;;;;;;17.30;92.37;95933.59;4321008;32;20193;-58
2022/09/05 02:41:39;;;;;;;0.53;0.53;;;;;;;17.21;92.95;95930.16;4318579;32;20237;-59
2022/09/05 02:44:16;;;;;;;1.70;0.93;;;;;;;17.12;93.83;95925.59;4326354;32;20255;-58
2022/09/05 02:47:06;;;;;;;0.77;0.77;;;;;;;17.13;93.45;95926.41;4328329;32;20248;-58
2022/09/05 02:49:59;;;;;;;0.63;0.63;;;;;;;16.88;92.13;95930.69;4314535;32;20265;-59
2022/09/05 02:52:29;;;;;;;0.90;0.90;;;;;;;17.00;93.04;95930.84;4313056;32;20280;-58
2022/09/05 02:54:59;;;;;;;0.77;0.77;;;;;;;16.97;93.06;95931.47;4312487;32;20245;-58
2022/09/05 02:57:32;;;;;;;0.33;0.33;;;;;;;16.80;92.84;95932.31;4243376;33;20257;-58
2022/09/05 03:00:26;;;;;;;0.37;0.37;;;;;;;16.96;93.62;95927.22;4343748;32;20190;-58
2022/09/05 03:03:27;;;;;;;0.80;0.80;;;;;;;16.92;93.06;95934.31;4306046;33;20206;-58
2022/09/05 03:06:23;;;;;;;1.10;1.10;;;;;;;16.92;93.59;95936.22;4295299;32;20247;-58
2022/09/05 03:09:10;;;;;;;0.67;0.67;;;;;;;16.59;93.51;95926.00;4323748;32;20208;-58
2022/09/05 03:12:12;;;;;;;0.80;0.80;;;;;;;16.74;92.95;95930.09;4336099;32;20189;-58
2022/09/05 03:14:59;;;;;;;1.27;1.13;;;;;;;16.70;94.21;95929.16;4339584;32;20211;-58
2022/09/05 03:18:02;;;;;;;0.60;0.60;;;;;;;16.85;94.02;95925.97;4337213;32;20229;-58
2022/09/05 03:20:53;;;;;;;7.43;1.07;;;;;;;16.96;93.35;95929.13;4335113;32;20243;-59
2022/09/05 03:23:52;;;;;;;0.50;0.50;;;;;;;17.02;93.03;95934.00;4337053;32;20218;-58
2022/09/05 03:26:40;;;;;;;0.80;0.80;;;;;;;16.94;93.65;95937.47;4332773;32;20249;-58
2022/09/05 03:29:46;;;;;;;0.87;0.60;;;;;;;16.79;91.56;95936.09;4334708;32;20200;-58
2022/09/05 03:32:23;;;;;;;0.60;0.60;;;;;;;16.68;92.40;95944.75;4339023;32;20292;-58
2022/09/05 03:35:07;;;;;;;0.47;0.47;;;;;;;16.61;93.58;95939.06;4346351;32;20205;-58
2022/09/05 03:37:38;;;;;;;3.90;1.27;;;;;;;16.72;94.49;95934.97;4351339;32;20197;-58
2022/09/05 03:40:21;;;;;;;0.50;0.47;;;;;;;16.84;93.83;95943.16;4340251;32;20216;-58
2022/09/05 03:43:11;;;;;;;0.67;0.67;;;;;;;16.63;93.47;95937.66;4335609;32;20205;-58
2022/09/05 03:46:01;;;;;;;0.70;0.70;;;;;;;16.76;94.13;95938.63;4332889;32;20259;-58
2022/09/05 03:48:44;;;;;;;0.40;0.40;;;;;;;16.88;93.43;95933.38;4335116;32;20240;-58
2022/09/05 03:51:42;;;;;;;0.80;0.80;;;;;;;16.74;93.09;95932.78;4325277;32;20211;-58
2022/09/05 03:54:26;;;;;;;0.63;0.63;;;;;;;16.63;92.45;95931.47;4339233;32;20261;-58
2022/09/05 03:57:34;;;;;;;0.77;0.77;;;;;;;16.61;93.18;95933.72;4348420;32;20193;-58
2022/09/05 04:00:09;;;;;;;0.70;0.70;;;;;;;16.58;93.17;95931.66;4351066;32;20185;-58
2022/09/05 04:02:48;;;;;;;1.03;1.03;;;;;;;16.79;93.74;95929.94;4333020;32;20196;-58
2022/09/05 04:05:19;;;;;;;1.07;1.07;;;;;;;16.78;93.22;95928.38;4345754;32;20252;-58
2022/09/05 04:07:52;;;;;;;0.80;0.80;;;;;;;16.73;93.80;95923.16;4335703;32;20197;-59
2022/09/05 04:10:24;;;;;;;2.37;0.93;;;;;;;16.72;93.45;95930.41;4355249;32;20193;-58
2022/09/05 04:12:59;;;;;;;0.60;0.60;;;;;;;16.57;93.50;95925.50;4343930;32;20211;-58
2022/09/05 04:15:59;;;;;;;0.70;0.70;;;;;;;16.66;94.14;95925.53;4349702;32;20235;-58
2022/09/05 04:18:44;;;;;;;0.50;0.50;;;;;;;16.71;93.67;95925.38;4342381;32;20234;-58
2022/09/05 04:21:43;;;;;;;0.70;0.70;;;;;;;16.43;92.14;95927.56;4337087;32;20208;-58
2022/09/05 04:24:24;;;;;;;0.60;0.60;;;;;;;16.56;93.06;95915.91;4337294;32;20185;-60
2022/09/05 04:26:58;;;;;;;0.47;0.47;;;;;;;16.42;93.39;95926.75;4342497;32;20189;-58
2022/09/05 04:30:01;;;;;;;0.93;0.93;;;;;;;16.52;93.14;95920.31;4350353;32;20203;-58
2022/09/05 04:32:49;;;;;;;1.23;1.23;;;;;;;16.63;93.93;95921.59;4327229;32;20265;-58
2022/09/05 04:35:36;;;;;;;0.33;0.33;;;;;;;16.55;93.73;95929.63;4354625;32;20239;-58
2022/09/05 04:38:11;;;;;;;3.87;1.63;;;;;;;16.39;92.43;95932.78;4351806;32;20193;-58
2022/09/05 04:40:44;;;;;;;1.37;0.90;;;;;;;16.06;92.26;95935.09;4347145;32;20231;-58
2022/09/05 04:43:24;;;;;;;1.07;0.80;;;;;;;16.04;93.34;95931.13;4351207;32;20195;-58
2022/09/05 04:46:00;;;;;;;8.03;0.40;;;;;;;15.86;94.63;95932.22;4349426;32;20276;-58
2022/09/05 04:48:33;;;;;;;0.73;0.73;;;;;;;16.00;94.22;95927.53;4366020;32;20196;-59
2022/09/05 04:51:08;;;;;;;1.20;1.13;;;;;;;16.29;95.13;95934.97;4341226;32;20219;-58
2022/09/05 04:54:03;;;;;;;0.70;0.70;;;;;;;16.38;94.14;95939.22;4343712;32;20239;-58
2022/09/05 04:56:36;;;;;;;0.57;0.57;;;;;;;16.30;93.50;95940.00;4337333;32;20205;-58
2022/09/05 04:59:30;;;;;;;0.70;0.70;;;;;;;16.16;93.81;95939.37;4348401;32;20241;-58
2022/09/05 05:02:02;;;;;;;0.43;0.43;;;;;;;16.26;93.82;95944.41;4350518;32;20213;-58
2022/09/05 05:04:28;;;;;;;0.50;0.43;;;;;;;16.22;92.23;95946.13;4366155;32;20258;-58
2022/09/05 05:07:46;;;;;;;0.30;0.30;;;;;;;16.37;93.43;95951.03;4360055;32;20204;-58
2022/09/05 05:10:21;;;;;;;0.43;0.43;;;;;;;16.38;92.97;95960.66;4320481;32;20259;-58
2022/09/05 05:13:03;;;;;;;0.50;0.50;;;;;;;16.39;92.34;95961.44;4352700;32;20211;-58
2022/09/05 05:15:30;;;;;;;9.57;1.20;;;;;;;16.63;91.92;95960.94;4355249;32;20207;-58
2022/09/05 05:18:25;;;;;;;1.33;1.03;;;;;;;16.59;91.46;95958.12;4351527;32;20275;-59
2022/09/05 05:21:04;;;;;;;0.70;0.70;;;;;;;16.39;91.96;95953.41;4351390;32;20288;-58
2022/09/05 05:23:38;;;;;;;1.30;1.20;;;;;;;16.43;92.58;95960.47;4346419;32;20236;-58
2022/09/05 05:26:11;;;;;;;0.60;0.60;;;;;;;16.68;91.61;95971.53;4351969;32;20279;-58
2022/09/05 05:28:57;;;;;;;0.47;0.47;;;;;;;16.30;90.54;95966.78;4341522;32;20215;-58
2022/09/05 05:31:29;;;;;;;0.60;0.60;;;;;;;16.36;92.17;95975.47;4338739;32;20230;-59
2022/09/05 05:34:00;;;;;;;0.43;0.43;;;;;;;16.59;91.81;95968.06;4349417;32;20208;-58
2022/09/05 05:36:31;;;;;;;3.70;1.07;;;;;;;16.69;91.87;95973.12;4334791;32;20220;-65
2022/09/05 05:39:01;;;;;;;0.40;0.40;;;;;;;16.79;91.29;95978.19;4353870;32;20189;-59
2022/09/05 05:41:35;;;;;;;0.57;0.57;;;;;;;16.72;90.46;95980.53;4357571;32;20181;-58
2022/09/05 05:44:11;;;;;;;0.97;0.97;;;;;;;16.77;89.92;95991.91;4344207;32;20201;-58
2022/09/05 05:46:40;;;;;;;0.57;0.57;;;;;;;16.77;91.32;95985.75;4341865;32;20215;-58
2022/09/05 05:49:26;;;;;;;0.83;0.83;;;;;;;16.77;91.55;95989.22;4338195;32;20193;-58
2022/09/05 05:52:42;;;;;;;0.97;0.97;;;;;;;16.86;91.02;95983.84;4335840;32;20205;-58
2022/09/05 05:55:16;;;;;;;0.60;0.60;;;;;;;16.96;90.80;95988.88;4318957;32;20181;-58
2022/09/05 05:58:07;;;;;;;0.40;0.40;;;;;;;16.85;91.19;95987.62;4356200;32;20256;-58
2022/09/05 06:00:48;;;;;;;0.63;0.63;;;;;;;17.05;90.07;95984.28;4353911;32;20197;-58
2022/09/05 06:03:41;;;;;;;0.60;0.60;;;;;;;17.04;90.47;95992.66;4350839;32;20215;-58
2022/09/05 06:06:18;;;;;;;0.97;0.97;;;;;;;17.05;90.24;95994.22;4353766;32;20197;-58
2022/09/05 06:09:25;;;;;;;0.63;0.63;;;;;;;17.12;90.26;95997.22;4353117;32;20217;-58
2022/09/05 06:12:19;;;;;;;0.57;0.57;;;;;;;17.10;89.73;95994.84;4350095;32;20193;-58
2022/09/05 06:15:06;;;;;;;6.50;1.37;;;;;;;17.14;90.12;95995.00;4335105;32;20197;-58
2022/09/05 06:17:50;;;;;;;3.63;1.80;;;;;;;16.98;90.15;95997.41;4343000;32;20233;-58
2022/09/05 06:20:35;;;;;;;1.27;0.97;;;;;;;16.94;89.57;95995.66;4352480;32;20304;-58
2022/09/05 06:23:22;;;;;;;1.10;1.10;;;;;;;17.09;90.75;95993.28;4353565;32;20207;-58
2022/09/05 06:26:19;;;;;;;0.70;0.70;;;;;;;17.15;90.35;95997.38;4354925;32;20213;-58
2022/09/05 06:28:52;;;;;;;0.73;0.73;;;;;;;17.20;89.68;96006.34;4359829;32;20216;-58
2022/09/05 06:31:26;;;;;;;1.10;1.10;;;;;;;17.21;89.32;95995.31;4338958;32;20251;-58
2022/09/05 06:34:10;;;;;;;1.20;1.20;;;;;;;17.41;89.40;96001.91;4346325;32;20256;-58
2022/09/05 06:36:42;;;;;;;16.33;1.30;;;;;;;17.23;88.57;96001.16;4340445;32;20197;-58
2022/09/05 06:39:23;;;;;;;0.60;0.60;;;;;;;17.25;88.97;95998.91;4341265;32;20185;-58
2022/09/05 06:41:54;;;;;;;1.17;1.17;;;;;;;17.34;88.65;95999.69;4341630;32;20200;-58
2022/09/05 06:44:56;;;;;;;0.80;0.80;;;;;;;17.25;89.21;95996.22;4341327;32;20185;-58
2022/09/05 06:47:23;;;;;;;1.53;1.43;;;;;;;17.26;88.97;95991.66;4318642;32;20190;-58
2022/09/05 06:50:04;;;;;;;1.00;0.90;;;;;;;17.22;88.58;96001.47;4353396;32;20260;-58
2022/09/05 06:52:57;;;;;;;1.50;1.40;;;;;;;17.39;89.85;95993.38;4351504;32;20197;-59
2022/09/05 06:55:32;;;;;;;1.10;0.90;;;;;;;17.44;88.55;95995.91;4348325;32;20293;-58
2022/09/05 06:58:06;;;;;;;6.70;2.17;;;;;;;17.55;88.05;96002.47;4353978;32;20200;-58
2022/09/05 07:00:54;;;;;;;4.30;1.57;;;;;;;17.69;89.80;96000.41;4355427;32;20325;-57
2022/09/05 07:03:38;;;;;;;1.03;1.03;;;;;;;17.66;88.94;95989.53;4352441;32;20185;-57
2022/09/05 07:06:31;;;;;;;1.10;1.10;;;;;;;17.75;90.15;95993.75;4339715;32;20204;-58
2022/09/05 07:09:06;;;;;;;0.60;0.60;;;;;;;17.83;89.92;96001.00;4346416;32;20208;-58
2022/09/05 07:11:40;;;;;;;1.07;1.07;;;;;;;17.77;88.29;95999.59;4342937;32;20193;-58
2022/09/05 07:14:06;;;;;;;1.07;1.07;;;;;;;17.83;88.20;96006.38;4353942;32;20189;-57
2022/09/05 07:16:46;;;;;;;0.80;0.80;;;;;;;17.82;87.37;96010.16;4353641;32;20227;-58
2022/09/05 07:19:37;;;;;;;0.73;0.73;;;;;;;17.95;88.64;96007.56;4359978;32;20185;-57
2022/09/05 07:22:38;;;;;;;1.70;0.63;;;;;;;18.03;87.66;96012.91;4354167;32;20358;-57
2022/09/05 07:25:15;;;;;;;1.13;1.03;;;;;;;18.22;87.41;96009.81;4341710;32;20184;-57
2022/09/05 07:27:40;;;;;;;0.80;0.80;;;;;;;18.30;88.14;96013.53;4349874;32;20192;-60
2022/09/05 07:30:06;;;;;;;1.23;1.07;;;;;;;18.29;87.51;96012.00;4354058;32;20207;-58
2022/09/05 07:32:44;;;;;;;0.50;0.50;;;;;;;18.31;86.89;96015.09;4338070;32;20228;-58
2022/09/05 07:35:30;;;;;;;0.70;0.70;;;;;;;18.37;87.33;96024.56;4336806;32;20213;-57
2022/09/05 07:38:26;;;;;;;3.53;1.67;;;;;;;18.48;87.49;96018.50;4345514;32;20228;-58
2022/09/05 07:40:58;;;;;;;2.13;1.97;;;;;;;18.49;86.02;96020.09;4365144;32;20245;-59
2022/09/05 07:43:32;;;;;;;0.87;0.87;;;;;;;18.58;85.09;96013.84;4361528;32;20189;-58
2022/09/05 07:46:14;;;;;;;1.37;1.27;;;;;;;18.60;86.11;96017.81;4348778;32;20205;-58
2022/09/05 07:48:49;;;;;;;0.57;0.57;;;;;;;18.66;86.60;96015.72;4360503;32;20196;-58
2022/09/05 07:51:26;;;;;;;0.93;0.83;;;;;;;18.68;86.29;96024.25;4337648;32;20214;-59
2022/09/05 07:54:19;;;;;;;0.70;0.70;;;;;;;18.64;85.64;96026.81;4356194;32;20196;-59
2022/09/05 07:56:52;;;;;;;1.07;1.00;;;;;;;18.65;86.13;96025.69;4330203;32;20189;-57
2022/09/05 07:59:19;;;;;;;0.63;0.63;;;;;;;18.74;84.51;96020.22;4337076;32;20197;-58
2022/09/05 08:01:48;;;;;;;1.40;1.00;;;;;;;18.75;83.89;96025.28;4351877;32;20252;-59
2022/09/05 08:04:32;;;;;;;0.87;0.87;;;;;;;18.85;85.29;96024.13;4352432;32;20211;-58
2022/09/05 08:07:03;;;;;;;1.00;0.80;;;;;;;18.87;85.44;96020.00;4343104;32;20194;-58
2022/09/05 08:09:41;;;;;;;0.73;0.73;;;;;;;18.88;81.80;96026.16;4349768;32;20225;-59
2022/09/05 08:12:16;;;;;;;0.63;0.63;;;;;;;18.90;81.82;96025.81;4338075;32;20189;-59
2022/09/05 08:15:08;;;;;;;0.40;0.40;;;;;;;18.93;81.59;96031.31;4344721;32;20191;-58
2022/09/05 08:17:50;;;;;;;1.00;1.00;;;;;;;18.97;81.59;96026.06;4349251;32;20232;-59
2022/09/05 08:20:36;;;;;;;0.70;0.70;;;;;;;18.96;82.16;96022.59;4335977;32;20336;-59
2022/09/05 08:23:30;;;;;;;0.30;0.30;;;;;;;19.04;81.77;96015.56;4343013;32;20193;-59
2022/09/05 08:26:11;;;;;;;2.60;1.27;;;;;;;19.09;80.94;96013.47;4298315;33;20197;-59
2022/09/05 08:28:56;;;;;;;4.67;2.27;;;;;;;19.06;81.07;96011.44;4334130;32;20193;-58
2022/09/05 08:31:39;;;;;;;0.63;0.63;;;;;;;19.09;81.37;96015.37;4350518;32;20239;-57
2022/09/05 08:34:23;;;;;;;2.20;1.10;;;;;;;19.05;81.17;96017.94;4335961;32;20220;-59
2022/09/05 08:36:51;;;;;;;0.93;0.93;;;;;;;19.06;80.00;96014.13;4321663;32;20177;-58
2022/09/05 08:39:20;;;;;;;1.20;1.17;;;;;;;19.04;81.82;96016.34;4300800;32;20272;-59
2022/09/05 08:42:11;;;;;;;1.00;1.00;;;;;;;19.05;81.28;96017.16;4339362;32;20268;-58
2022/09/05 08:45:14;;;;;;;4.67;0.90;;;;;;;19.22;79.12;96012.38;4311534;32;20198;-59
2022/09/05 08:48:14;;;;;;;9.23;1.30;;;;;;;19.29;79.36;96016.47;4332990;32;20208;-58
2022/09/05 08:51:13;;;;;;;1.20;0.87;;;;;;;19.29;80.20;96006.47;4333449;32;20235;-59
2022/09/05 08:54:02;;;;;;;1.20;1.07;;;;;;;19.34;80.18;96010.84;4334255;32;20227;-58
2022/09/05 08:56:37;;;;;;;0.83;0.83;;;;;;;19.55;78.02;96003.53;4333805;32;20236;-65
2022/09/05 08:59:14;;;;;;;0.87;0.87;;;;;;;19.57;78.95;96001.28;4328716;32;20228;-59
2022/09/05 09:02:08;;;;;;;2.30;1.40;;;;;;;19.72;78.11;96003.34;4314699;32;20189;-59
2022/09/05 09:04:46;;;;;;;0.60;0.60;;;;;;;19.82;77.85;96000.22;4341049;32;20292;-58
2022/09/05 09:07:37;;;;;;;1.30;1.10;;;;;;;19.87;77.39;96000.00;4330422;32;20234;-58
2022/09/05 09:10:17;;;;;;;0.57;0.57;;;;;;;19.96;78.16;95996.41;4351359;32;20264;-60
2022/09/05 09:13:05;;;;;;;0.43;0.43;;;;;;;20.03;78.01;95996.62;4343384;32;20193;-60
2022/09/05 09:15:36;;;;;;;0.83;0.83;;;;;;;20.07;78.56;95998.31;4317155;32;20220;-59
2022/09/05 09:18:20;;;;;;;0.30;0.30;;;;;;;20.11;77.89;95993.03;4319166;32;20232;-59
2022/09/05 09:20:57;;;;;;;0.77;0.77;;;;;;;20.25;76.80;95990.78;4329277;32;20272;-60
2022/09/05 09:23:42;;;;;;;0.60;0.60;;;;;;;20.36;76.31;95989.22;4330485;32;20201;-59
2022/09/05 09:26:32;;;;;;;0.80;0.80;;;;;;;20.42;76.38;95985.19;4336244;32;20196;-59
2022/09/05 09:29:05;;;;;;;0.47;0.47;;;;;;;20.53;75.55;95980.12;4336870;32;20205;-62
2022/09/05 09:31:44;;;;;;;0.43;0.43;;;;;;;20.48;76.49;95980.34;4347214;32;20208;-60
2022/09/05 09:34:30;;;;;;;0.50;0.50;;;;;;;20.59;75.52;95974.13;4307664;32;20208;-60
2022/09/05 09:37:18;;;;;;;0.73;0.73;;;;;;;20.63;75.52;95979.63;4325233;32;20194;-61
2022/09/05 09:40:21;;;;;;;1.00;1.00;;;;;;;20.81;74.89;95980.12;4324670;32;20277;-59
2022/09/05 09:42:56;;;;;;;0.43;0.43;;;;;;;20.88;74.97;95980.34;4330351;32;20205;-59
2022/09/05 09:45:50;;;;;;;0.80;0.80;;;;;;;20.93;74.10;95974.72;4316174;32;20181;-60
2022/09/05 09:48:33;;;;;;;0.53;0.53;;;;;;;21.18;72.71;95973.47;4334294;32;20469;-60
2022/09/05 09:51:31;;;;;;;0.40;0.40;;;;;;;21.30;70.31;95975.34;4309030;32;20212;-59
2022/09/05 09:54:53;;;;;;;0.57;0.57;;;;;;;21.37;69.54;95972.06;4324175;32;20186;-61
2022/09/05 09:57:50;;;;;;;0.83;0.83;;;;;;;21.28;71.29;95977.59;4341283;32;20299;-60
2022/09/05 10:00:22;;;;;;;0.50;0.50;;;;;;;21.27;70.56;95968.72;4312480;32;20296;-59
2022/09/05 10:03:01;;;;;;;0.47;0.47;;;;;;;21.23;71.80;95969.75;4316280;32;20276;-59
2022/09/05 10:05:50;;;;;;;0.83;0.83;;;;;;;21.32;68.74;95980.41;4336351;32;20189;-59
2022/09/05 10:08:47;;;;;;;0.40;0.40;;;;;;;21.40;67.37;95977.56;4312706;32;20289;-59
2022/09/05 10:11:27;;;;;;;0.10;0.10;;;;;;;21.40;67.34;95977.56;4327267;32;20210;-59
2022/09/05 10:14:31;;;;;;;0.60;0.60;;;;;;;21.60;65.78;95968.44;4288783;33;20251;-59
2022/09/05 10:17:14;;;;;;;0.50;0.47;;;;;;;21.66;64.29;95974.34;4328651;32;20212;-59
2022/09/05 10:19:57;;;;;;;0.40;0.40;;;;;;;21.74;65.06;95968.00;4344113;32;20221;-59
2022/09/05 10:22:45;;;;;;;0.53;0.53;;;;;;;21.80;64.94;95968.53;4304385;32;20252;-59
2022/09/05 10:25:36;;;;;;;0.40;0.40;;;;;;;21.70;66.22;95964.41;4309290;32;20227;-59
2022/09/05 10:28:04;;;;;;;0.33;0.33;;;;;;;21.71;65.54;95968.69;4339622;32;20216;-59
2022/09/05 10:30:58;;;;;;;0.43;0.43;;;;;;;21.69;66.27;95968.25;4300624;32;20202;-62
2022/09/05 10:33:32;;;;;;;0.63;0.63;;;;;;;21.72;65.88;95961.37;4321790;32;20215;-59
2022/09/05 10:36:21;;;;;;;0.40;0.40;;;;;;;21.69;66.88;95962.84;4322371;32;20201;-59
2022/09/05 10:39:18;;;;;;;0.97;0.97;;;;;;;21.74;66.79;95959.88;4322578;32;20202;-59
2022/09/05 10:41:54;;;;;;;0.63;0.63;;;;;;;21.70;68.58;95956.31;4326885;32;20225;-59
2022/09/05 10:44:44;;;;;;;0.20;0.20;;;;;;;21.67;67.68;95954.31;4345123;32;20189;-59
2022/09/05 10:47:35;;;;;;;1.93;1.73;;;;;;;21.64;67.83;95946.09;4337179;32;20204;-59
2022/09/05 10:50:28;;;;;;;2.30;1.77;;;;;;;21.77;68.05;95948.38;4329126;32;20216;-59
2022/09/05 10:53:31;;;;;;;0.67;0.67;;;;;;;21.95;68.25;95944.19;4332308;32;20208;-59
2022/09/05 10:56:34;;;;;;;0.63;0.63;;;;;;;22.02;68.44;95934.72;4334098;32;20189;-61
2022/09/05 10:59:03;;;;;;;0.50;0.50;;;;;;;21.92;69.00;95934.06;4330244;32;20193;-59
2022/09/05 11:01:46;;;;;;;0.43;0.43;;;;;;;22.06;68.10;95930.94;4327789;32;20190;-60
2022/09/05 11:04:39;;;;;;;0.93;0.93;;;;;;;22.19;67.43;95935.12;4339982;32;20189;-59
2022/09/05 11:07:14;;;;;;;0.50;0.50;;;;;;;22.37;66.04;95940.13;4333209;32;20224;-59
2022/09/05 11:10:06;;;;;;;0.70;0.70;;;;;;;22.57;64.11;95928.19;4337258;32;20243;-59
2022/09/05 11:13:07;;;;;;;0.20;0.20;;;;;;;22.40;65.90;95926.69;4349153;32;20197;-59
2022/09/05 11:15:57;;;;;;;0.33;0.33;;;;;;;22.38;65.54;95926.25;4341044;32;20283;-60
2022/09/05 11:19:17;;;;;;;0.80;0.80;;;;;;;22.37;64.12;95921.19;4351191;32;20227;-59
2022/09/05 11:22:06;;;;;;;0.63;0.63;;;;;;;22.47;63.77;95920.63;4265376;33;20234;-59
2022/09/05 11:25:00;;;;;;;0.60;0.60;;;;;;;22.38;65.05;95926.25;4264168;33;20245;-59
2022/09/05 11:27:54;;;;;;;0.37;0.37;;;;;;;22.33;64.95;95926.53;4289682;33;20240;-61
2022/09/05 11:30:22;;;;;;;0.37;0.37;;;;;;;22.33;65.49;95925.75;4290236;33;20189;-59
2022/09/05 11:33:25;;;;;;;0.30;0.30;;;;;;;22.28;65.91;95927.56;4269636;33;20232;-60
2022/09/05 11:35:56;;;;;;;0.40;0.40;;;;;;;22.33;64.18;95917.63;4273663;33;20218;-59
2022/09/05 11:38:39;;;;;;;0.50;0.50;;;;;;;22.61;62.20;95910.13;4249421;33;20192;-60
2022/09/05 11:42:00;;;;;;;0.30;0.30;;;;;;;22.80;61.42;95912.06;4261193;33;20211;-59
2022/09/05 11:44:52;;;;;;;0.33;0.33;;;;;;;22.88;60.88;95919.16;4347003;32;20223;-59
2022/09/05 11:47:54;;;;;;;0.37;0.33;;;;;;;22.88;59.54;95919.16;4311824;32;20232;-59
2022/09/05 11:51:07;;;;;;;2.33;1.10;;;;;;;22.65;61.23;95910.97;4333013;32;20201;-59
2022/09/05 11:54:28;;;;;;;0.60;0.60;;;;;;;22.57;61.14;95914.66;4300112;33;20244;-59
2022/09/05 11:57:08;;;;;;;0.40;0.40;;;;;;;22.45;62.88;95902.03;4326582;32;20194;-59
2022/09/05 11:59:36;;;;;;;0.83;0.83;;;;;;;22.39;63.32;95902.69;4332098;32;20181;-59
2022/09/05 12:02:39;;;;;;;0.60;0.60;;;;;;;22.45;61.98;95902.03;4348346;32;20188;-62
2022/09/05 12:05:42;;;;;;;0.70;0.70;;;;;;;22.59;62.96;95901.56;4304705;33;20197;-60
2022/09/05 12:08:38;;;;;;;0.33;0.33;;;;;;;22.87;61.89;95904.06;4313462;32;20185;-59
2022/09/05 12:11:28;;;;;;;0.50;0.50;;;;;;;22.87;61.73;95895.94;4305994;32;20251;-59
2022/09/05 12:14:31;;;;;;;0.47;0.47;;;;;;;23.31;59.82;95890.94;4294455;33;20252;-59
2022/09/05 12:17:18;;;;;;;0.60;0.60;;;;;;;23.46;58.32;95910.94;4292116;33;20238;-59
2022/09/05 12:20:21;;;;;;;0.50;0.50;;;;;;;23.53;58.07;95897.53;4292324;32;20257;-59
2022/09/05 12:23:20;;;;;;;0.40;0.40;;;;;;;23.47;58.46;95883.50;4306027;33;20192;-60
2022/09/05 12:25:57;;;;;;;2.63;1.33;;;;;;;23.59;58.05;95886.03;4304076;33;20194;-59
2022/09/05 12:28:45;;;;;;;0.83;0.83;;;;;;;23.44;59.22;95883.44;4298008;33;20380;-60
2022/09/05 12:31:25;;;;;;;0.80;0.80;;;;;;;23.23;60.47;95881.94;4294206;33;20329;-59
2022/09/05 12:33:51;;;;;;;0.50;0.50;;;;;;;23.07;60.36;95875.81;4312857;32;20208;-59
2022/09/05 12:36:33;;;;;;;0.70;0.70;;;;;;;23.17;60.85;95882.59;4300787;32;20219;-59
2022/09/05 12:39:39;;;;;;;1.20;1.20;;;;;;;23.29;59.63;95877.75;4325357;32;20196;-59
2022/09/05 12:42:40;;;;;;;0.20;0.20;;;;;;;23.44;58.99;95886.16;4334408;32;20211;-59
2022/09/05 12:45:39;;;;;;;0.47;0.47;;;;;;;23.39;59.09;95881.03;4241675;33;20259;-59
2022/09/05 12:48:22;;;;;;;0.87;0.87;;;;;;;23.55;57.19;95887.13;4313606;32;20197;-59
2022/09/05 12:51:16;;;;;;;0.53;0.53;;;;;;;23.50;56.74;95887.38;4340072;32;20197;-59
2022/09/05 12:53:46;;;;;;;0.53;0.53;;;;;;;23.55;56.99;95887.13;4334512;32;20194;-59
2022/09/05 12:56:49;;;;;;;0.50;0.50;;;;;;;23.84;56.77;95883.72;4335130;32;20339;-59
2022/09/05 12:59:22;;;;;;;0.00;0.00;;;;;;;24.07;56.26;95886.38;4303881;32;20223;-59